Time;durP1;ratioP1;P1;durP2;ratioP2;P2;SDS_P1;SDS_P2;PMS_P1;PMS_P2;Temp;Humidity;BMP_temperature;BMP_pressure;BME280_temperature;BME280_humidity;BME280_pressure;Samples;Min_cycle;Max_cycle;Signal;HPM_P1;HPM_P2
2023/09/20 00:00:27;;;;;;;0.10;0.10;;;;;;;13.77;100.00;96270.88;4982714;28;20144;-79
2023/09/20 00:03:13;;;;;;;0.10;0.10;;;;;;;13.75;100.00;96267.66;4995253;28;20038;-79
2023/09/20 00:06:00;;;;;;;0.10;0.10;;;;;;;13.65;100.00;96266.63;4996537;28;20067;-79
2023/09/20 00:08:47;;;;;;;0.00;0.00;;;;;;;13.62;100.00;96272.56;4994988;28;20109;-80
2023/09/20 00:11:35;;;;;;;0.10;0.10;;;;;;;13.60;100.00;96271.19;4998798;28;20117;-80
2023/09/20 00:14:21;;;;;;;0.10;0.10;;;;;;;13.53;100.00;96274.16;4999656;28;20043;-80
2023/09/20 00:17:07;;;;;;;0.10;0.10;;;;;;;13.52;100.00;96280.63;4990425;28;20688;-80
2023/09/20 00:19:53;;;;;;;0.10;0.10;;;;;;;13.51;100.00;96276.31;4990014;28;20549;-80
2023/09/20 00:22:41;;;;;;;0.10;0.10;;;;;;;13.47;100.00;96283.34;4974929;28;20046;-80
2023/09/20 00:25:29;;;;;;;0.10;0.10;;;;;;;13.50;100.00;96280.09;4992370;28;20641;-80
2023/09/20 00:28:18;;;;;;;0.00;0.00;;;;;;;13.50;100.00;96277.41;4991271;28;20034;-80
2023/09/20 00:31:05;;;;;;;0.10;0.10;;;;;;;13.53;100.00;96276.03;4974595;28;20032;-79
2023/09/20 00:33:52;;;;;;;0.10;0.10;;;;;;;13.54;100.00;96278.50;4988223;28;20038;-79
2023/09/20 00:36:38;;;;;;;0.10;0.10;;;;;;;13.55;100.00;96290.03;4978010;28;20076;-79
2023/09/20 00:39:25;;;;;;;0.00;0.00;;;;;;;13.58;100.00;96282.22;4988681;28;20045;-78
2023/09/20 00:42:12;;;;;;;0.10;0.10;;;;;;;13.59;100.00;96274.97;4975100;28;20045;-78
2023/09/20 00:45:01;;;;;;;0.10;0.10;;;;;;;13.52;100.00;96275.25;4991193;28;20068;-79
2023/09/20 00:47:56;;;;;;;0.00;0.00;;;;;;;13.51;100.00;96270.94;4974532;28;20045;-79
2023/09/20 00:50:43;;;;;;;0.10;0.10;;;;;;;13.49;100.00;96265.03;4974689;28;20049;-79
2023/09/20 00:53:29;;;;;;;0.10;0.10;;;;;;;13.49;100.00;96275.00;4989274;28;20336;-79
2023/09/20 00:56:15;;;;;;;0.00;0.00;;;;;;;13.48;100.00;96273.38;4974782;28;20509;-78
2023/09/20 00:59:06;;;;;;;0.10;0.10;;;;;;;13.50;100.00;96274.72;4973595;28;20057;-78
2023/09/20 01:01:53;;;;;;;0.10;0.10;;;;;;;13.51;100.00;96272.84;4972166;28;20093;-79
2023/09/20 01:04:40;;;;;;;0.10;0.10;;;;;;;13.50;100.00;96269.34;4991636;28;20041;-79
2023/09/20 01:07:26;;;;;;;0.10;0.10;;;;;;;13.52;100.00;96266.38;4974284;28;20123;-79
2023/09/20 01:10:12;;;;;;;0.10;0.10;;;;;;;13.46;100.00;96264.75;4976611;28;20044;-78
2023/09/20 01:12:59;;;;;;;0.10;0.10;;;;;;;13.46;100.00;96262.88;4970469;28;20595;-78
2023/09/20 01:15:46;;;;;;;0.10;0.10;;;;;;;13.40;100.00;96260.50;4990115;28;20092;-79
2023/09/20 01:18:32;;;;;;;0.08;0.08;;;;;;;13.35;100.00;96264.78;4975914;28;20069;-78
2023/09/20 01:21:18;;;;;;;0.00;0.00;;;;;;;13.26;100.00;96258.34;4976595;28;20041;-79
2023/09/20 01:24:04;;;;;;;0.10;0.10;;;;;;;13.25;100.00;96258.63;4987196;28;20602;-79
2023/09/20 01:26:57;;;;;;;0.10;0.10;;;;;;;13.25;100.00;96258.63;4990412;28;20046;-79
2023/09/20 01:29:43;;;;;;;0.05;0.05;;;;;;;13.15;100.00;96255.91;4978042;28;20037;-79
2023/09/20 01:32:29;;;;;;;0.00;0.00;;;;;;;13.11;100.00;96256.44;4989206;28;20097;-78
2023/09/20 01:35:18;;;;;;;0.10;0.10;;;;;;;13.08;100.00;96259.69;4989582;28;20042;-78
2023/09/20 01:38:06;;;;;;;0.00;0.00;;;;;;;13.05;100.00;96265.56;4974551;28;20042;-79
2023/09/20 01:40:56;;;;;;;0.10;0.10;;;;;;;13.05;100.00;96260.19;4988156;28;20081;-79
2023/09/20 01:43:43;;;;;;;0.10;0.10;;;;;;;13.07;100.00;96252.69;4969228;28;20053;-79
2023/09/20 01:46:29;;;;;;;0.00;0.00;;;;;;;13.06;100.00;96245.69;4976611;28;20042;-79
2023/09/20 01:49:20;;;;;;;0.10;0.10;;;;;;;13.13;100.00;96250.00;4988768;28;20544;-79
2023/09/20 01:52:06;;;;;;;0.10;0.10;;;;;;;13.15;100.00;96245.16;4974926;28;20185;-79
2023/09/20 01:54:57;;;;;;;0.10;0.10;;;;;;;13.14;100.00;96246.22;4987031;28;20947;-80
2023/09/20 01:57:47;;;;;;;0.10;0.10;;;;;;;13.14;100.00;96247.03;4987566;28;20046;-79
2023/09/20 02:00:40;;;;;;;0.00;0.00;;;;;;;13.12;100.00;96241.13;4987766;28;20363;-79
2023/09/20 02:03:27;;;;;;;0.10;0.10;;;;;;;13.10;100.00;96237.91;4975334;28;20038;-79
2023/09/20 02:06:13;;;;;;;0.10;0.10;;;;;;;13.10;100.00;96241.41;4988365;28;20069;-79
2023/09/20 02:08:59;;;;;;;0.10;0.10;;;;;;;13.09;100.00;96239.78;4972931;28;20045;-79
2023/09/20 02:11:45;;;;;;;0.03;0.03;;;;;;;13.13;100.00;96232.00;4987639;28;20558;-79
2023/09/20 02:14:33;;;;;;;0.08;0.08;;;;;;;13.10;100.00;96224.47;4988280;28;20053;-79
2023/09/20 02:17:20;;;;;;;0.10;0.10;;;;;;;13.05;100.00;96219.91;4973800;28;20100;-79
2023/09/20 02:20:10;;;;;;;0.10;0.10;;;;;;;13.10;100.00;96219.91;4987525;28;20070;-79
2023/09/20 02:22:57;;;;;;;0.10;0.10;;;;;;;13.11;100.00;96220.72;4971893;28;20910;-79
2023/09/20 02:25:43;;;;;;;0.10;0.10;;;;;;;13.10;100.00;96222.59;4988548;28;20084;-79
2023/09/20 02:28:31;;;;;;;0.10;0.10;;;;;;;13.16;100.00;96228.78;4987582;28;20127;-79
2023/09/20 02:31:19;;;;;;;0.10;0.10;;;;;;;13.14;100.00;96228.22;4987592;28;20072;-79
2023/09/20 02:34:05;;;;;;;0.10;0.10;;;;;;;13.13;100.00;96226.63;4971696;28;20062;-80
2023/09/20 02:36:51;;;;;;;0.00;0.00;;;;;;;13.15;100.00;96224.50;4972443;28;20216;-79
2023/09/20 02:39:37;;;;;;;0.10;0.10;;;;;;;13.15;100.00;96221.81;4987463;28;20112;-80
2023/09/20 02:42:26;;;;;;;0.00;0.00;;;;;;;13.17;100.00;96219.66;4986070;28;20042;-80
2023/09/20 02:45:13;;;;;;;0.10;0.10;;;;;;;13.16;100.00;96219.91;4988521;28;20147;-80
2023/09/20 02:48:06;;;;;;;0.03;0.03;;;;;;;13.16;100.00;96223.41;4967882;28;20035;-80
2023/09/20 02:50:53;;;;;;;0.10;0.10;;;;;;;13.20;100.00;96219.13;4984787;28;20681;-79
2023/09/20 02:53:39;;;;;;;0.10;0.10;;;;;;;13.23;100.00;96218.59;4984628;28;20393;-80
2023/09/20 02:56:24;;;;;;;0.10;0.10;;;;;;;13.24;100.00;96209.47;4988654;28;20089;-80
2023/09/20 02:59:10;;;;;;;0.20;0.20;;;;;;;13.28;100.00;96212.41;4971942;28;20052;-80
2023/09/20 03:01:56;;;;;;;0.10;0.10;;;;;;;13.29;100.00;96205.94;4986073;28;20072;-78
2023/09/20 03:04:42;;;;;;;0.10;0.10;;;;;;;13.27;100.00;96200.84;4985167;28;20057;-76
2023/09/20 03:07:28;;;;;;;0.00;0.00;;;;;;;13.27;100.00;96197.34;4973930;28;20044;-79
2023/09/20 03:10:16;;;;;;;0.00;0.00;;;;;;;13.27;100.00;96195.47;4972019;28;20045;-79
2023/09/20 03:13:03;;;;;;;0.05;0.05;;;;;;;13.31;100.00;96185.00;4970849;28;20041;-79
2023/09/20 03:15:54;;;;;;;0.10;0.10;;;;;;;13.28;100.00;96191.69;4988777;28;20517;-78
2023/09/20 03:18:42;;;;;;;0.10;0.10;;;;;;;13.30;100.00;96192.22;4960247;28;20241;-78
2023/09/20 03:21:29;;;;;;;0.10;0.10;;;;;;;13.34;100.00;96181.75;4985358;28;20184;-78
2023/09/20 03:24:15;;;;;;;0.10;0.10;;;;;;;13.31;100.00;96183.13;4973796;28;20038;-79
2023/09/20 03:27:01;;;;;;;0.10;0.10;;;;;;;13.31;100.00;96179.63;4971928;28;20284;-79
2023/09/20 03:29:48;;;;;;;0.10;0.10;;;;;;;13.33;100.00;96180.97;4986721;28;20396;-79
2023/09/20 03:32:34;;;;;;;0.10;0.10;;;;;;;13.32;100.00;96173.16;4972926;28;20088;-79
2023/09/20 03:35:20;;;;;;;0.10;0.10;;;;;;;13.31;100.00;96172.38;4971378;28;20220;-79
2023/09/20 03:38:08;;;;;;;0.10;0.10;;;;;;;13.32;100.00;96170.47;4990457;28;20042;-80
2023/09/20 03:40:54;;;;;;;0.10;0.10;;;;;;;13.33;100.00;96172.09;4977257;28;20045;-79
2023/09/20 03:43:40;;;;;;;0.00;0.00;;;;;;;13.31;100.00;96174.25;4978277;28;20038;-80
2023/09/20 03:46:27;;;;;;;0.00;0.00;;;;;;;13.27;100.00;96165.13;4977657;28;20078;-80
2023/09/20 03:49:15;;;;;;;0.00;0.00;;;;;;;13.21;100.00;96175.06;4975191;28;20037;-80
2023/09/20 03:52:00;;;;;;;0.10;0.10;;;;;;;13.20;100.00;96168.06;4975625;28;20042;-80
2023/09/20 03:54:53;;;;;;;0.10;0.10;;;;;;;13.18;100.00;96175.56;4974331;28;20116;-79
2023/09/20 03:57:40;;;;;;;0.10;0.10;;;;;;;13.20;100.00;96175.34;4969960;28;20045;-80
2023/09/20 04:00:27;;;;;;;0.10;0.10;;;;;;;13.24;100.00;96168.34;4975450;28;20029;-80
2023/09/20 04:03:13;;;;;;;0.10;0.10;;;;;;;13.23;100.00;96180.16;4989470;28;20042;-80
2023/09/20 04:05:59;;;;;;;0.10;0.10;;;;;;;13.23;100.00;96177.47;4993736;28;20045;-80
2023/09/20 04:08:45;;;;;;;0.10;0.10;;;;;;;13.19;100.00;96168.31;4968075;28;20046;-80
2023/09/20 04:11:33;;;;;;;0.10;0.10;;;;;;;13.11;100.00;96173.16;4991876;28;20501;-80
2023/09/20 04:14:19;;;;;;;0.10;0.10;;;;;;;13.15;100.00;96169.94;4991137;28;20144;-80
2023/09/20 04:17:05;;;;;;;0.10;0.10;;;;;;;13.14;100.00;96158.38;4976845;28;20405;-80
2023/09/20 04:19:51;;;;;;;0.10;0.10;;;;;;;13.14;100.00;96162.94;4988226;28;20041;-80
2023/09/20 04:22:40;;;;;;;0.03;0.03;;;;;;;13.14;100.00;96160.25;4989695;28;20046;-79
2023/09/20 04:25:26;;;;;;;0.10;0.10;;;;;;;13.17;100.00;96163.22;4976499;28;20510;-79
2023/09/20 04:28:12;;;;;;;0.10;0.10;;;;;;;13.16;100.00;96158.94;4991316;28;20046;-77
2023/09/20 04:30:58;;;;;;;0.10;0.10;;;;;;;13.16;100.00;96153.56;4977004;28;20565;-79
2023/09/20 04:33:44;;;;;;;0.10;0.10;;;;;;;13.10;100.00;96152.75;4979463;28;20172;-78
2023/09/20 04:36:30;;;;;;;0.10;0.10;;;;;;;13.02;100.00;96158.69;4976853;28;20045;-78
2023/09/20 04:39:16;;;;;;;0.10;0.10;;;;;;;12.97;100.00;96160.56;4977073;28;20041;-78
2023/09/20 04:42:03;;;;;;;0.10;0.10;;;;;;;12.87;100.00;96160.59;4976238;28;20049;-78
2023/09/20 04:44:49;;;;;;;0.10;0.10;;;;;;;12.75;100.00;96164.31;4991205;28;20409;-78
2023/09/20 04:47:36;;;;;;;0.10;0.10;;;;;;;12.58;100.00;96161.13;4972081;28;20041;-78
2023/09/20 04:50:24;;;;;;;0.10;0.10;;;;;;;12.43;100.00;96161.91;4978287;28;20042;-78
2023/09/20 04:53:10;;;;;;;0.10;0.10;;;;;;;12.29;100.00;96160.81;4973152;28;20324;-78
2023/09/20 04:55:56;;;;;;;0.10;0.10;;;;;;;12.18;100.00;96165.38;4971324;28;20053;-79
2023/09/20 04:58:44;;;;;;;0.10;0.10;;;;;;;12.12;100.00;96161.06;4969216;28;20477;-78
2023/09/20 05:01:31;;;;;;;0.00;0.00;;;;;;;12.06;100.00;96161.28;4990000;28;20044;-78
2023/09/20 05:04:19;;;;;;;0.10;0.10;;;;;;;12.00;100.00;96157.81;4989190;28;20044;-79
2023/09/20 05:07:06;;;;;;;0.10;0.10;;;;;;;11.98;100.00;96162.63;4989134;28;20448;-78
2023/09/20 05:09:55;;;;;;;0.10;0.10;;;;;;;11.94;100.00;96164.22;4975166;28;20343;-79
2023/09/20 05:12:41;;;;;;;0.05;0.05;;;;;;;11.91;100.00;96162.91;4969373;28;20046;-78
2023/09/20 05:15:27;;;;;;;0.10;0.10;;;;;;;11.94;100.00;96161.56;4977013;28;20042;-78
2023/09/20 05:18:13;;;;;;;0.10;0.10;;;;;;;11.94;100.00;96161.56;4975916;28;20448;-79
2023/09/20 05:21:00;;;;;;;0.10;0.10;;;;;;;11.91;100.00;96160.22;4976098;28;20556;-78
2023/09/20 05:23:48;;;;;;;0.00;0.00;;;;;;;11.90;100.00;96165.81;4975073;28;20132;-79
2023/09/20 05:26:34;;;;;;;0.08;0.08;;;;;;;11.88;100.00;96167.97;4991044;28;20369;-78
2023/09/20 05:29:22;;;;;;;0.10;0.10;;;;;;;11.98;100.00;96155.41;4990514;28;20054;-78
2023/09/20 05:32:08;;;;;;;0.10;0.10;;;;;;;12.10;100.00;96148.97;4975075;28;20536;-79
2023/09/20 05:34:55;;;;;;;0.00;0.00;;;;;;;12.20;100.00;96140.94;4989447;28;20575;-81
2023/09/20 05:37:41;;;;;;;0.10;0.10;;;;;;;12.22;100.00;96150.38;4989346;28;20070;-78
2023/09/20 05:40:29;;;;;;;0.10;0.10;;;;;;;12.21;100.00;96148.72;4991847;28;20480;-78
2023/09/20 05:43:16;;;;;;;0.10;0.10;;;;;;;12.25;100.00;96146.34;4988488;28;20463;-79
2023/09/20 05:46:04;;;;;;;0.10;0.10;;;;;;;12.17;100.00;96153.03;4977572;28;20052;-79
2023/09/20 05:48:50;;;;;;;0.10;0.10;;;;;;;12.24;100.00;96150.88;4989896;28;20145;-78
2023/09/20 05:51:37;;;;;;;0.10;0.10;;;;;;;12.32;100.00;96144.19;4990066;28;20409;-79
2023/09/20 05:54:23;;;;;;;0.10;0.10;;;;;;;12.49;100.00;96142.06;4988960;28;20092;-79
2023/09/20 05:57:09;;;;;;;0.10;0.10;;;;;;;12.56;100.00;96141.78;4988874;28;20571;-79
2023/09/20 05:59:56;;;;;;;0.10;0.10;;;;;;;12.72;100.00;96139.91;4990499;28;20080;-79
2023/09/20 06:02:43;;;;;;;0.10;0.10;;;;;;;12.81;100.00;96135.59;4987118;28;20967;-78
2023/09/20 06:05:31;;;;;;;0.10;0.10;;;;;;;12.94;100.00;96139.63;4989604;28;20113;-79
2023/09/20 06:08:17;;;;;;;0.00;0.00;;;;;;;12.87;100.00;96139.91;4989430;28;20404;-79
2023/09/20 06:11:05;;;;;;;0.10;0.10;;;;;;;12.87;100.00;96142.59;4989452;28;20476;-79
2023/09/20 06:13:51;;;;;;;0.10;0.10;;;;;;;12.97;100.00;96142.56;4986763;28;20046;-79
2023/09/20 06:16:37;;;;;;;0.10;0.10;;;;;;;13.08;100.00;96144.19;4988144;28;20509;-79
2023/09/20 06:19:23;;;;;;;0.10;0.10;;;;;;;13.20;100.00;96145.78;4988798;28;20463;-78
2023/09/20 06:22:09;;;;;;;0.10;0.10;;;;;;;13.26;100.00;96148.19;4987751;28;20688;-78
2023/09/20 06:24:58;;;;;;;0.10;0.10;;;;;;;13.32;100.00;96144.41;4987947;28;20128;-78
2023/09/20 06:27:45;;;;;;;0.10;0.10;;;;;;;13.33;100.00;96137.16;4990059;28;20077;-78
2023/09/20 06:30:31;;;;;;;0.10;0.10;;;;;;;13.34;100.00;96128.00;4990517;28;20084;-78
2023/09/20 06:33:16;;;;;;;0.10;0.10;;;;;;;13.48;100.00;96123.66;4988325;28;20811;-78
2023/09/20 06:36:02;;;;;;;0.10;0.10;;;;;;;13.57;100.00;96135.47;4974244;28;20056;-80
2023/09/20 06:38:49;;;;;;;0.10;0.10;;;;;;;13.68;100.00;96119.28;4989269;28;20053;-78
2023/09/20 06:41:37;;;;;;;0.00;0.00;;;;;;;13.79;100.00;96127.03;4989674;28;20519;-78
2023/09/20 06:44:28;;;;;;;0.10;0.10;;;;;;;13.71;100.00;96121.44;4989614;28;20432;-79
2023/09/20 06:47:14;;;;;;;0.10;0.10;;;;;;;13.67;100.00;96131.91;4986395;28;20375;-79
2023/09/20 06:50:03;;;;;;;0.10;0.10;;;;;;;13.62;100.00;96140.03;4988121;28;20044;-79
2023/09/20 06:52:51;;;;;;;0.10;0.10;;;;;;;13.75;100.00;96139.41;4988406;28;20125;-79
2023/09/20 06:55:37;;;;;;;0.10;0.10;;;;;;;13.92;100.00;96142.53;4989267;28;20334;-79
2023/09/20 06:58:24;;;;;;;0.10;0.10;;;;;;;13.96;100.00;96139.31;4989672;28;20084;-80
2023/09/20 07:01:11;;;;;;;0.10;0.10;;;;;;;14.00;100.00;96143.84;4988908;28;20504;-79
2023/09/20 07:03:56;;;;;;;0.10;0.10;;;;;;;14.07;100.00;96135.47;4985953;28;20120;-79
2023/09/20 07:06:42;;;;;;;0.10;0.10;;;;;;;14.13;100.00;96140.56;4988045;28;20077;-79
2023/09/20 07:09:28;;;;;;;0.10;0.10;;;;;;;14.18;100.00;96145.91;4988411;28;20505;-79
2023/09/20 07:12:14;;;;;;;0.10;0.10;;;;;;;14.29;100.00;96143.16;4988306;28;20331;-79
2023/09/20 07:15:00;;;;;;;0.10;0.10;;;;;;;14.27;100.00;96138.06;4987008;28;20594;-79
2023/09/20 07:17:58;;;;;;;0.10;0.10;;;;;;;14.35;100.00;96133.97;4986080;28;20046;-79
2023/09/20 07:20:44;;;;;;;0.10;0.10;;;;;;;14.42;100.00;96134.44;4982724;28;20042;-79
2023/09/20 07:23:30;;;;;;;0.10;0.10;;;;;;;14.42;100.00;96142.53;4989257;28;20046;-78
2023/09/20 07:26:16;;;;;;;0.10;0.10;;;;;;;14.42;100.00;96137.94;4987683;28;20030;-79
2023/09/20 07:29:03;;;;;;;0.10;0.10;;;;;;;14.57;100.00;96139.75;4987157;28;20050;-79
2023/09/20 07:31:49;;;;;;;0.10;0.10;;;;;;;14.61;100.00;96130.00;4986455;28;20042;-79
2023/09/20 07:34:35;;;;;;;0.10;0.10;;;;;;;14.69;100.00;96142.06;4986911;28;20541;-79
2023/09/20 07:37:21;;;;;;;0.10;0.10;;;;;;;14.56;100.00;96143.53;4986625;28;20356;-79
2023/09/20 07:40:07;;;;;;;0.10;0.10;;;;;;;14.65;100.00;96146.44;4986934;28;20366;-80
2023/09/20 07:42:53;;;;;;;0.10;0.10;;;;;;;14.81;100.00;96139.03;4985849;28;20348;-79
2023/09/20 07:45:41;;;;;;;0.10;0.10;;;;;;;14.87;100.00;96140.59;4988009;28;20069;-79
2023/09/20 07:48:27;;;;;;;0.10;0.10;;;;;;;14.97;100.00;96133.22;4988122;28;20052;-80
2023/09/20 07:51:14;;;;;;;0.10;0.10;;;;;;;14.96;100.00;96146.97;4989188;28;20042;-79
2023/09/20 07:54:00;;;;;;;0.10;0.10;;;;;;;15.05;100.00;96134.50;4985135;28;20251;-79
2023/09/20 07:56:52;;;;;;;0.10;0.10;;;;;;;15.13;100.00;96147.34;4941063;28;20049;-80
2023/09/20 07:59:38;;;;;;;0.10;0.10;;;;;;;15.39;100.00;96155.16;4986753;28;20099;-79
2023/09/20 08:02:24;;;;;;;0.10;0.10;;;;;;;15.51;100.00;96140.19;4984225;28;20042;-80
2023/09/20 08:05:11;;;;;;;0.10;0.10;;;;;;;15.53;100.00;96148.00;4984806;28;20044;-79
2023/09/20 08:07:57;;;;;;;0.10;0.10;;;;;;;15.63;100.00;96147.91;4986461;28;20048;-79
2023/09/20 08:10:44;;;;;;;0.10;0.10;;;;;;;15.53;100.00;96146.09;4986652;28;20602;-79
2023/09/20 08:13:33;;;;;;;0.10;0.10;;;;;;;15.51;100.00;96142.91;4987862;28;20539;-79
2023/09/20 08:16:20;;;;;;;0.10;0.10;;;;;;;15.77;100.00;96151.50;4987237;28;20038;-79
2023/09/20 08:19:11;;;;;;;0.10;0.10;;;;;;;15.94;100.00;96148.31;4984278;28;20493;-79
2023/09/20 08:21:57;;;;;;;0.10;0.10;;;;;;;16.00;100.00;96143.66;4974817;28;20041;-80
2023/09/20 09:01:44;;;;;;;0.10;0.10;;;;;;;16.97;100.00;96126.84;4987931;28;20066;-78
2023/09/20 09:04:31;;;;;;;0.10;0.10;;;;;;;17.30;100.00;96124.09;4973510;28;20050;-79
2023/09/20 09:07:17;;;;;;;0.17;0.17;;;;;;;17.64;100.00;96123.69;4985752;28;20512;-79
2023/09/20 09:10:07;;;;;;;0.10;0.10;;;;;;;17.73;100.00;96113.78;4986504;28;20507;-79
2023/09/20 09:12:53;;;;;;;0.10;0.10;;;;;;;17.75;100.00;96109.69;4985163;28;20057;-80
2023/09/20 09:15:40;;;;;;;0.10;0.10;;;;;;;17.92;100.00;96111.78;4985965;28;20153;-79
2023/09/20 09:18:26;;;;;;;0.10;0.10;;;;;;;17.88;100.00;96115.38;4984721;28;20538;-80
2023/09/20 09:21:14;;;;;;;0.03;0.03;;;;;;;18.55;100.00;96107.38;4990677;28;20398;-80
2023/09/20 09:24:00;;;;;;;0.10;0.10;;;;;;;18.53;100.00;96107.69;4986455;28;20540;-80
2023/09/20 09:26:46;;;;;;;0.10;0.10;;;;;;;18.42;100.00;96098.19;4973475;28;20278;-79
2023/09/20 09:29:32;;;;;;;0.10;0.10;;;;;;;18.58;100.00;96102.13;4988254;28;20057;-80
2023/09/20 09:32:19;;;;;;;0.10;0.10;;;;;;;18.32;100.00;96101.13;4984724;28;20038;-80
2023/09/20 09:35:06;;;;;;;0.10;0.10;;;;;;;18.55;100.00;96101.97;4987029;28;20439;-79
2023/09/20 09:37:52;;;;;;;0.10;0.10;;;;;;;18.65;100.00;96116.06;4982990;28;20065;-80
2023/09/20 09:40:56;;;;;;;0.10;0.10;;;;;;;18.98;100.00;96104.16;4990088;28;20136;-79
2023/09/20 09:43:41;;;;;;;0.10;0.10;;;;;;;18.75;100.00;96095.25;4984055;28;20271;-80
2023/09/20 09:46:28;;;;;;;0.10;0.10;;;;;;;18.80;100.00;96104.06;4989305;28;20405;-80
2023/09/20 09:49:18;;;;;;;0.10;0.10;;;;;;;18.91;100.00;96112.75;4982208;28;20057;-79
2023/09/20 09:52:04;;;;;;;0.10;0.10;;;;;;;19.18;100.00;96099.03;4979531;28;20046;-80
2023/09/20 09:54:54;;;;;;;0.10;0.10;;;;;;;19.36;100.00;96099.88;4985790;28;20057;-80
2023/09/20 09:57:40;;;;;;;0.10;0.10;;;;;;;19.21;100.00;96103.00;4958523;28;20054;-80
2023/09/20 10:00:26;;;;;;;0.15;0.15;;;;;;;19.44;100.00;96092.91;4984913;28;20227;-80
2023/09/20 10:03:32;;;;;;;0.10;0.10;;;;;;;19.23;100.00;96100.00;4988576;28;20485;-79
2023/09/20 10:06:26;;;;;;;0.10;0.10;;;;;;;19.35;100.00;96097.50;4985804;28;20457;-80
2023/09/20 10:09:13;;;;;;;0.10;0.10;;;;;;;19.44;100.00;96098.31;4974856;28;20121;-80
2023/09/20 10:11:59;;;;;;;0.10;0.10;;;;;;;19.27;100.00;96100.97;4987716;28;20489;-80
2023/09/20 10:14:46;;;;;;;0.10;0.10;;;;;;;19.10;100.00;96091.66;4987212;28;20049;-80
2023/09/20 10:17:31;;;;;;;0.00;0.00;;;;;;;19.18;100.00;96096.31;4973167;28;20042;-79
2023/09/20 10:20:18;;;;;;;0.00;0.00;;;;;;;19.33;100.00;96086.97;4986636;28;20042;-80
2023/09/20 10:23:04;;;;;;;0.00;0.00;;;;;;;19.42;100.00;96087.00;4985067;28;20044;-80
2023/09/20 10:25:50;;;;;;;0.10;0.10;;;;;;;19.21;100.00;96095.66;4990041;28;20038;-80
2023/09/20 10:28:37;;;;;;;0.10;0.10;;;;;;;19.17;100.00;96088.50;4989339;28;20053;-80
2023/09/20 10:31:23;;;;;;;0.10;0.10;;;;;;;19.56;100.00;96084.16;4972974;28;20504;-80
2023/09/20 10:34:09;;;;;;;0.10;0.10;;;;;;;19.86;100.00;96079.81;4990694;28;20091;-80
2023/09/20 10:36:55;;;;;;;0.10;0.10;;;;;;;20.73;100.00;96076.00;4989015;28;20318;-79
2023/09/20 10:39:46;;;;;;;0.10;0.10;;;;;;;21.45;100.00;96073.56;4987451;28;20041;-78
2023/09/20 10:42:32;;;;;;;;;;;;;;;20.88;100.00;96076.63;4967732;28;20099;-79
2023/09/20 10:45:19;;;;;;;0.00;0.00;;;;;;;20.29;100.00;96075.19;4985529;28;19960;-79
2023/09/20 10:48:14;;;;;;;0.10;0.10;;;;;;;19.91;100.00;96069.56;4986844;28;20492;-78
2023/09/20 10:51:03;;;;;;;0.10;0.10;;;;;;;19.45;100.00;96076.31;4985807;28;20038;-78
2023/09/20 10:53:52;;;;;;;0.10;0.10;;;;;;;19.51;100.00;96074.25;4985263;28;20041;-78
2023/09/20 10:56:53;;;;;;;0.10;0.10;;;;;;;19.26;100.00;96075.75;4987538;28;20048;-78
2023/09/20 10:59:41;;;;;;;0.10;0.10;;;;;;;19.05;100.00;96080.13;4986494;28;20123;-79
2023/09/20 11:02:26;;;;;;;0.10;0.10;;;;;;;19.37;100.00;96073.56;4986147;28;20111;-79
2023/09/20 11:05:14;;;;;;;0.10;0.10;;;;;;;19.96;100.00;96068.63;4975861;28;20547;-79
2023/09/20 11:08:07;;;;;;;0.10;0.10;;;;;;;20.79;100.00;96052.19;4984407;28;20045;-78
2023/09/20 11:10:54;;;;;;;0.10;0.10;;;;;;;21.55;100.00;96068.56;4986730;28;20069;-79
2023/09/20 11:13:42;;;;;;;0.10;0.10;;;;;;;20.72;100.00;96047.22;4986777;28;20048;-79
2023/09/20 11:16:28;;;;;;;0.10;0.10;;;;;;;20.73;100.00;96048.81;4986700;28;20038;-80
2023/09/20 11:19:14;;;;;;;0.20;0.20;;;;;;;21.19;100.00;96054.63;4986763;28;20037;-80
2023/09/20 11:22:01;;;;;;;0.10;0.10;;;;;;;21.39;100.00;96054.69;4971348;28;20037;-80
2023/09/20 11:24:47;;;;;;;0.10;0.10;;;;;;;21.11;100.00;96054.31;4987074;28;20049;-79
2023/09/20 11:27:34;;;;;;;0.10;0.10;;;;;;;21.50;100.00;96032.56;4985783;28;20057;-80
2023/09/20 11:30:27;;;;;;;0.10;0.10;;;;;;;22.23;100.00;96039.31;4988931;28;20086;-80
2023/09/20 11:33:28;;;;;;;0.10;0.10;;;;;;;21.89;100.00;96024.00;4982538;28;20065;-80
2023/09/20 11:36:19;;;;;;;0.10;0.10;;;;;;;22.02;100.00;96027.56;4988922;28;20037;-80
2023/09/20 11:39:05;;;;;;;0.10;0.10;;;;;;;21.66;100.00;96041.78;4985042;28;20848;-80
2023/09/20 11:41:51;;;;;;;0.10;0.10;;;;;;;21.28;100.00;96030.91;4969996;28;20511;-80
2023/09/20 11:44:37;;;;;;;0.10;0.10;;;;;;;22.21;100.00;96018.97;4987683;28;20052;-81
2023/09/20 11:47:23;;;;;;;0.03;0.03;;;;;;;23.04;100.00;96024.28;4985617;28;20050;-80
2023/09/20 11:50:13;;;;;;;0.20;0.20;;;;;;;22.36;100.00;96015.66;4985510;28;20042;-80
2023/09/20 11:52:58;;;;;;;0.10;0.10;;;;;;;26.26;92.53;95996.34;4986859;28;20237;-81
2023/09/20 11:55:45;;;;;;;0.00;0.00;;;;;;;22.99;100.00;96012.78;4986908;28;20042;-81
2023/09/20 11:58:34;;;;;;;0.10;0.10;;;;;;;21.70;100.00;96010.03;4989629;28;20045;-80
2023/09/20 12:01:24;;;;;;;0.00;0.00;;;;;;;21.68;100.00;95998.66;4990144;28;20089;-81
2023/09/20 12:04:10;;;;;;;0.10;0.10;;;;;;;21.31;100.00;96008.47;4991850;28;20323;-80
2023/09/20 12:06:56;;;;;;;0.10;0.10;;;;;;;20.79;100.00;96005.97;4990371;28;20034;-80
2023/09/20 12:09:42;;;;;;;0.10;0.10;;;;;;;21.77;100.00;95996.69;4990860;28;20042;-80
2023/09/20 12:12:31;;;;;;;0.10;0.10;;;;;;;25.37;99.78;95982.56;4992534;28;20041;-81
2023/09/20 12:15:17;;;;;;;0.10;0.10;;;;;;;27.32;87.58;95983.06;4992486;28;20346;-78
2023/09/20 12:18:03;;;;;;;0.10;0.10;;;;;;;27.01;83.71;95980.53;4987201;28;20599;-85
2023/09/20 12:20:49;;;;;;;0.10;0.10;;;;;;;24.58;95.71;95986.03;4984806;28;20516;-85
2023/09/20 12:23:36;;;;;;;0.10;0.10;;;;;;;23.22;100.00;95991.31;4992584;28;20072;-85
2023/09/20 12:26:24;;;;;;;0.10;0.10;;;;;;;23.70;100.00;95987.00;4991377;28;20038;-85
2023/09/20 12:29:10;;;;;;;0.10;0.10;;;;;;;24.50;96.21;95987.00;4991439;28;20156;-86
2023/09/20 12:31:56;;;;;;;0.10;0.10;;;;;;;24.85;96.23;95972.69;4992334;28;20037;-85
2023/09/20 12:34:42;;;;;;;0.10;0.10;;;;;;;25.11;93.68;95964.75;4998070;28;20603;-85
2023/09/20 12:37:28;;;;;;;0.10;0.10;;;;;;;24.56;95.36;95963.72;4995442;28;20034;-85
2023/09/20 12:40:14;;;;;;;0.10;0.10;;;;;;;25.10;88.02;95960.44;4973320;28;20041;-84
2023/09/20 12:43:01;;;;;;;0.10;0.10;;;;;;;23.44;98.32;95963.56;4991519;28;20717;-85
2023/09/20 12:45:47;;;;;;;0.00;0.00;;;;;;;22.53;100.00;95950.03;4991946;28;20089;-84
2023/09/20 12:48:33;;;;;;;0.17;0.17;;;;;;;24.88;94.43;95944.59;4975845;28;20050;-83
2023/09/20 12:51:19;;;;;;;0.10;0.10;;;;;;;29.96;62.61;95928.94;4991767;28;20046;-83
2023/09/20 12:54:06;;;;;;;0.20;0.20;;;;;;;30.88;45.66;95941.47;4989714;28;20037;-84
2023/09/20 12:56:51;;;;;;;0.10;0.10;;;;;;;30.12;47.78;95923.13;4991151;28;20037;-85
2023/09/20 12:59:38;;;;;;;0.10;0.10;;;;;;;27.81;65.30;95930.03;4993556;28;20050;-85
2023/09/20 13:02:27;;;;;;;0.10;0.10;;;;;;;30.25;52.15;95912.50;4990786;28;20153;-84
2023/09/20 13:05:13;;;;;;;0.00;0.00;;;;;;;27.95;62.23;95913.72;4978090;28;20045;-84
2023/09/20 13:07:59;;;;;;;0.10;0.10;;;;;;;31.68;44.32;95913.44;4974586;28;20128;-85
2023/09/20 13:10:46;;;;;;;0.10;0.10;;;;;;;32.17;42.56;95912.50;4990515;28;20041;-84
2023/09/20 13:13:32;;;;;;;0.10;0.10;;;;;;;29.53;50.72;95905.84;4986694;28;20287;-84
2023/09/20 13:16:18;;;;;;;0.10;0.10;;;;;;;32.51;43.86;95889.03;4990799;28;20041;-84
2023/09/20 13:19:05;;;;;;;0.10;0.10;;;;;;;33.76;36.08;95886.03;4992018;28;20049;-85
2023/09/20 13:21:52;;;;;;;0.10;0.10;;;;;;;33.72;34.47;95880.53;4958219;28;20045;-85
2023/09/20 13:24:40;;;;;;;0.03;0.03;;;;;;;35.24;32.99;95869.75;4989744;28;20050;-85
2023/09/20 13:27:26;;;;;;;0.10;0.10;;;;;;;33.43;34.90;95893.13;4888464;28;20444;-86
2023/09/20 13:30:13;;;;;;;0.10;0.10;;;;;;;31.06;38.58;95889.00;4856694;28;20353;-84
2023/09/20 13:32:59;;;;;;;0.10;0.10;;;;;;;31.19;38.00;95895.69;4987932;28;20558;-85
2023/09/20 13:35:45;;;;;;;0.10;0.10;;;;;;;31.94;38.95;95873.47;4992004;28;20033;-85